createdAt,value
2017-12-01T00:01:53.778Z,1000.38
2017-12-01T00:06:50.383Z,1000.37
2017-12-01T00:11:46.010Z,1000.39
2017-12-01T00:16:41.623Z,1000.54
2017-12-01T00:21:37.483Z,1000.60
2017-12-01T00:26:33.837Z,1000.69
2017-12-01T00:31:29.290Z,1000.68
2017-12-01T00:36:25.040Z,1000.68
2017-12-01T00:41:20.633Z,1000.81
2017-12-01T00:46:16.382Z,1000.80
2017-12-01T00:51:13.717Z,1000.93
2017-12-01T00:56:10.380Z,1000.87
2017-12-01T01:01:06.972Z,1000.93
2017-12-01T01:06:04.117Z,1000.95
2017-12-01T01:10:59.424Z,1001.20
2017-12-01T01:15:54.946Z,1001.17
2017-12-01T01:20:50.651Z,1001.19
2017-12-01T01:25:46.650Z,1001.20
2017-12-01T01:30:42.504Z,1001.36
2017-12-01T01:35:38.193Z,1001.35
2017-12-01T01:40:33.342Z,1001.40
2017-12-01T01:45:30.214Z,1001.37
2017-12-01T01:50:25.509Z,1001.53
2017-12-01T01:55:21.100Z,1001.59
2017-12-01T02:00:16.961Z,1001.60
2017-12-01T02:05:12.828Z,1001.68
2017-12-01T02:10:08.563Z,1001.74
2017-12-01T02:15:04.286Z,1001.83
2017-12-01T02:19:59.889Z,1001.80
2017-12-01T02:24:56.581Z,1001.90
2017-12-01T02:29:52.080Z,1002.00
2017-12-01T02:34:47.666Z,1001.98
2017-12-01T02:39:43.878Z,1002.14
2017-12-01T02:44:41.485Z,1002.10
2017-12-01T02:49:36.814Z,1002.14
2017-12-01T02:54:32.412Z,1002.26
2017-12-01T02:59:29.255Z,1002.39
2017-12-01T03:04:24.956Z,1002.36
2017-12-01T03:09:20.529Z,1002.35
2017-12-01T03:14:17.371Z,1002.43
2017-12-01T03:19:12.853Z,1002.41
2017-12-01T03:24:08.476Z,1002.41
2017-12-01T03:29:04.936Z,1002.58
2017-12-01T03:34:00.763Z,1002.66
2017-12-01T03:38:57.369Z,1002.74
2017-12-01T03:43:52.945Z,1002.82
2017-12-01T03:48:48.396Z,1002.86
2017-12-01T03:53:44.146Z,1003.01
2017-12-01T03:58:40.003Z,1003.03
2017-12-01T04:03:36.583Z,1003.07
2017-12-01T04:08:32.307Z,1003.16
2017-12-01T04:13:27.909Z,1003.23
2017-12-01T04:18:23.438Z,1003.46
2017-12-01T04:23:19.099Z,1003.53
2017-12-01T04:28:14.777Z,1003.57
2017-12-01T04:33:10.483Z,1003.65
2017-12-01T04:38:06.158Z,1003.73
2017-12-01T04:43:03.196Z,1003.78
2017-12-01T04:47:59.165Z,1003.93
2017-12-01T04:52:55.086Z,1003.99
2017-12-01T04:57:50.978Z,1003.96
2017-12-01T05:02:47.644Z,1004.09
2017-12-01T05:07:44.070Z,1004.16
2017-12-01T05:12:39.610Z,1004.29
2017-12-01T05:17:35.511Z,1004.31
2017-12-01T05:22:32.159Z,1004.34
2017-12-01T05:27:29.439Z,1004.36
2017-12-01T05:32:25.733Z,1004.38
2017-12-01T05:37:21.048Z,1004.52
2017-12-01T05:42:16.745Z,1004.66
2017-12-01T05:47:13.225Z,1004.69
2017-12-01T05:52:08.768Z,1004.76
2017-12-01T05:57:05.011Z,1004.84
2017-12-01T06:02:00.754Z,1004.91
2017-12-01T06:06:56.469Z,1004.93
2017-12-01T06:11:52.392Z,1005.01
2017-12-01T06:16:48.553Z,1005.06
2017-12-01T06:21:44.482Z,1005.19
2017-12-01T06:26:40.209Z,1005.22
2017-12-01T06:31:35.667Z,1005.31
2017-12-01T06:36:33.465Z,1005.39
2017-12-01T06:41:29.169Z,1005.54
2017-12-01T06:46:24.805Z,1005.63
2017-12-01T06:51:20.659Z,1005.69
2017-12-01T06:56:17.177Z,1005.79
2017-12-01T07:01:13.875Z,1005.87
2017-12-01T07:06:09.334Z,1006.00
2017-12-01T07:11:04.672Z,1006.03
2017-12-01T07:16:01.726Z,1006.19
2017-12-01T07:20:57.021Z,1006.20
2017-12-01T07:25:52.619Z,1006.28
2017-12-01T07:30:48.451Z,1006.36
2017-12-01T07:35:44.321Z,1006.46
2017-12-01T07:40:40.006Z,1006.59
2017-12-01T07:45:35.744Z,1006.61
2017-12-01T07:50:32.428Z,1006.72
2017-12-01T07:55:28.042Z,1006.83
2017-12-01T08:00:23.410Z,1006.85
2017-12-01T08:05:19.166Z,1007.00
2017-12-01T08:10:14.937Z,1007.06
2017-12-01T08:15:10.566Z,1007.10
2017-12-01T08:20:06.209Z,1007.19
2017-12-01T08:25:01.873Z,1007.28
2017-12-01T08:29:57.790Z,1007.41
2017-12-01T08:34:53.636Z,1007.43
2017-12-01T08:39:49.363Z,1007.61
2017-12-01T08:44:44.991Z,1007.61
2017-12-01T08:49:41.771Z,1007.66
2017-12-01T08:54:37.403Z,1007.72
2017-12-01T08:59:33.340Z,1007.83
2017-12-01T09:04:29.011Z,1007.95
2017-12-01T09:09:24.924Z,1008.02
2017-12-01T09:14:21.418Z,1008.05
2017-12-01T09:19:18.120Z,1008.16
2017-12-01T09:24:13.429Z,1008.20
2017-12-01T09:29:10.272Z,1008.35
2017-12-01T09:34:06.832Z,1008.41
2017-12-01T09:39:02.526Z,1008.48
2017-12-01T09:43:59.015Z,1008.56
2017-12-01T09:48:55.199Z,1008.63
2017-12-01T09:53:51.124Z,1008.68
2017-12-01T09:58:46.851Z,1008.75
2017-12-01T10:03:43.420Z,1008.77
2017-12-01T10:08:41.147Z,1008.77
2017-12-01T10:13:38.335Z,1008.90
2017-12-01T10:18:34.000Z,1008.90
2017-12-01T10:23:30.474Z,1008.95
2017-12-01T10:28:26.976Z,1008.94
2017-12-01T10:33:22.498Z,1008.98
2017-12-01T10:38:19.311Z,1009.04
2017-12-01T10:43:15.245Z,1009.11
2017-12-01T10:48:13.008Z,1009.16
2017-12-01T10:53:09.843Z,1009.06
2017-12-01T10:58:05.820Z,1009.10
2017-12-01T11:03:02.141Z,1009.03
2017-12-01T11:07:57.771Z,1009.19
2017-12-01T11:12:54.368Z,1009.19
2017-12-01T11:17:49.736Z,1009.22
2017-12-01T11:22:46.158Z,1009.29
2017-12-01T11:27:43.333Z,1009.32
2017-12-01T11:32:38.810Z,1009.28
2017-12-01T11:37:34.278Z,1009.32
2017-12-01T11:42:30.849Z,1009.47
2017-12-01T11:47:26.056Z,1009.53
2017-12-01T11:52:21.736Z,1009.56
2017-12-01T11:57:17.389Z,1009.57
2017-12-01T12:02:13.468Z,1009.53
2017-12-01T12:07:10.393Z,1009.58
2017-12-01T12:12:06.761Z,1009.62
2017-12-01T12:17:03.345Z,1009.72
2017-12-01T12:21:58.575Z,1009.72
2017-12-01T12:26:54.422Z,1009.61
2017-12-01T12:31:49.996Z,1009.69
2017-12-01T12:36:47.087Z,1009.71
2017-12-01T12:41:42.395Z,1009.77
2017-12-01T12:46:38.107Z,1009.91
2017-12-01T12:51:33.886Z,1009.78
2017-12-01T12:56:32.285Z,1009.83
2017-12-01T13:01:27.462Z,1009.89
2017-12-01T13:06:24.084Z,1010.05
2017-12-01T13:11:20.506Z,1010.06
2017-12-01T13:16:15.793Z,1010.21
2017-12-01T13:21:11.213Z,1010.20
2017-12-01T13:26:07.231Z,1010.29
2017-12-01T13:31:04.037Z,1010.26
2017-12-01T13:35:59.328Z,1010.34
2017-12-01T13:40:54.640Z,1010.34
2017-12-01T13:45:50.407Z,1010.28
2017-12-01T13:50:45.972Z,1010.46
2017-12-01T13:55:41.815Z,1010.50
2017-12-01T14:00:38.465Z,1010.59
2017-12-01T14:05:35.145Z,1010.70
2017-12-01T14:10:30.641Z,1010.70
2017-12-01T14:15:26.300Z,1010.66
2017-12-01T14:20:22.089Z,1010.79
2017-12-01T14:25:18.787Z,1010.77
2017-12-01T14:30:14.172Z,1010.86
2017-12-01T14:35:09.854Z,1010.94
2017-12-01T14:40:05.613Z,1011.01
2017-12-01T14:45:01.571Z,1011.13
2017-12-01T14:49:58.926Z,1011.08
2017-12-01T14:54:54.362Z,1011.29
2017-12-01T14:59:50.060Z,1011.30
2017-12-01T15:04:46.708Z,1011.28
2017-12-01T15:09:42.171Z,1011.39
2017-12-01T15:14:37.805Z,1011.31
2017-12-01T15:19:35.339Z,1011.43
2017-12-01T15:24:31.337Z,1011.55
2017-12-01T15:29:27.330Z,1011.64
2017-12-01T15:34:22.377Z,1011.71
2017-12-01T15:39:18.861Z,1011.73
2017-12-01T15:44:14.248Z,1011.79
2017-12-01T15:49:09.962Z,1011.89
2017-12-01T15:54:06.656Z,1011.86
2017-12-01T15:59:02.130Z,1011.91
2017-12-01T16:03:58.493Z,1011.91
2017-12-01T16:08:55.024Z,1011.97
2017-12-01T16:13:51.500Z,1012.09
2017-12-01T16:18:48.788Z,1012.15
2017-12-01T16:23:43.861Z,1012.30
2017-12-01T16:28:39.319Z,1012.25
2017-12-01T16:33:35.990Z,1012.35
2017-12-01T16:38:31.832Z,1012.36
2017-12-01T16:43:27.300Z,1012.44
2017-12-01T16:48:23.861Z,1012.51
2017-12-01T16:53:19.464Z,1012.55
2017-12-01T16:58:15.242Z,1012.56
2017-12-01T17:03:10.961Z,1012.68
2017-12-01T17:08:07.198Z,1012.81
2017-12-01T17:13:03.229Z,1012.84
2017-12-01T17:17:59.234Z,1012.84
2017-12-01T17:22:54.770Z,1012.87
2017-12-01T17:27:50.565Z,1013.09
2017-12-01T17:32:45.994Z,1013.08
2017-12-01T17:37:41.395Z,1013.03
2017-12-01T17:42:36.992Z,1013.05
2017-12-01T17:47:32.526Z,1012.99
2017-12-01T17:52:28.142Z,1013.16
2017-12-01T17:57:24.504Z,1013.26
2017-12-01T18:02:20.062Z,1013.26
2017-12-01T18:07:16.776Z,1013.29
2017-12-01T18:12:11.969Z,1013.35
2017-12-01T18:17:08.689Z,1013.41
2017-12-01T18:22:04.200Z,1013.47
2017-12-01T18:27:00.995Z,1013.52
2017-12-01T18:31:57.084Z,1013.53
2017-12-01T18:36:52.734Z,1013.54
2017-12-01T18:41:48.474Z,1013.55
2017-12-01T18:46:45.012Z,1013.79
2017-12-01T18:51:40.641Z,1013.72
2017-12-01T18:56:36.178Z,1013.82
2017-12-01T19:01:31.938Z,1013.96
2017-12-01T19:06:27.320Z,1013.97
2017-12-01T19:11:24.637Z,1014.08
2017-12-01T19:16:20.159Z,1014.09
2017-12-01T19:21:16.048Z,1014.07
2017-12-01T19:26:11.737Z,1014.12
2017-12-01T19:31:07.197Z,1014.21
2017-12-01T19:36:02.842Z,1014.23
2017-12-01T19:40:59.955Z,1014.31
2017-12-01T19:45:55.338Z,1014.40
2017-12-01T19:50:51.120Z,1014.48
2017-12-01T19:55:46.348Z,1014.45
2017-12-01T20:00:44.016Z,1014.54
2017-12-01T20:05:39.767Z,1014.69
2017-12-01T20:10:36.303Z,1014.65
2017-12-01T20:15:32.001Z,1014.57
2017-12-01T20:20:28.764Z,1014.61
2017-12-01T20:25:24.322Z,1014.66
2017-12-01T20:30:19.793Z,1014.65
2017-12-01T20:35:15.458Z,1014.68
2017-12-01T20:40:12.698Z,1014.77
2017-12-01T20:45:08.135Z,1014.86
2017-12-01T20:50:04.575Z,1014.91
2017-12-01T20:55:00.950Z,1014.93
2017-12-01T20:59:56.910Z,1015.01
2017-12-01T21:04:52.598Z,1015.01
2017-12-01T21:09:49.005Z,1015.03
2017-12-01T21:14:44.225Z,1015.17
2017-12-01T21:19:39.791Z,1015.14
2017-12-01T21:24:35.305Z,1015.21
2017-12-01T21:29:30.618Z,1015.21
2017-12-01T21:34:26.406Z,1015.22
2017-12-01T21:39:23.197Z,1015.22
2017-12-01T21:44:18.477Z,1015.32
2017-12-01T21:49:15.098Z,1015.47
2017-12-01T21:54:10.447Z,1015.47
2017-12-01T21:59:05.981Z,1015.55
2017-12-01T22:04:02.537Z,1015.45
2017-12-01T22:08:58.660Z,1015.55
2017-12-01T22:13:53.981Z,1015.55
2017-12-01T22:18:50.098Z,1015.60
2017-12-01T22:23:45.385Z,1015.63
2017-12-01T22:28:40.977Z,1015.60
2017-12-01T22:33:37.695Z,1015.64
2017-12-01T22:38:32.983Z,1015.70
2017-12-01T22:43:30.403Z,1015.87
2017-12-01T22:48:27.110Z,1015.94
2017-12-01T22:53:22.443Z,1015.98
2017-12-01T22:58:18.024Z,1015.99
2017-12-01T23:03:14.916Z,1015.99
2017-12-01T23:08:10.320Z,1016.00
2017-12-01T23:13:06.016Z,1016.06
2017-12-01T23:18:01.715Z,1015.99
2017-12-01T23:22:57.458Z,1016.06
2017-12-01T23:27:53.096Z,1016.06
2017-12-01T23:32:48.796Z,1015.97
2017-12-01T23:37:44.535Z,1016.10
2017-12-01T23:42:40.155Z,1016.15
2017-12-01T23:47:35.717Z,1016.03
2017-12-01T23:52:31.532Z,1016.12
2017-12-01T23:57:28.170Z,1016.21
